Time;durP1;ratioP1;P1;durP2;ratioP2;P2;SDS_P1;SDS_P2;PMS_P1;PMS_P2;Temp;Humidity;BMP_temperature;BMP_pressure;BME280_temperature;BME280_humidity;BME280_pressure;Samples;Min_cycle;Max_cycle;Signal;HPM_P1;HPM_P2
2022/03/25 00:00:31;;;;;;;7.30;6.60;;;;;;;;;;5066408;28;20217;-65
2022/03/25 00:03:00;;;;;;;6.93;6.23;;;;;;;;;;5060054;28;20754;-66
2022/03/25 00:05:31;;;;;;;7.90;6.67;;;;;;;;;;5055338;28;20578;-64
2022/03/25 00:08:03;;;;;;;7.07;6.13;;;;;;;;;;5052481;28;20214;-64
2022/03/25 00:10:36;;;;;;;7.87;6.27;;;;;;;;;;5056708;28;20830;-65
2022/03/25 00:13:05;;;;;;;6.80;6.20;;;;;;;;;;5048149;28;20367;-65
2022/03/25 00:15:33;;;;;;;8.27;6.30;;;;;;;;;;5058676;28;20194;-65
2022/03/25 00:18:00;;;;;;;7.47;6.67;;;;;;;;;;5057461;28;20205;-66
2022/03/25 00:20:29;;;;;;;6.43;5.73;;;;;;;;;;5050127;28;20194;-66
2022/03/25 00:22:58;;;;;;;7.63;6.40;;;;;;;;;;5055853;28;20198;-65
2022/03/25 00:25:29;;;;;;;7.20;6.47;;;;;;;;;;5052596;28;20212;-65
2022/03/25 00:27:56;;;;;;;7.90;7.10;;;;;;;;;;5052280;28;20533;-64
2022/03/25 00:30:29;;;;;;;8.70;6.73;;;;;;;;;;5052881;28;20199;-66
2022/03/25 00:33:00;;;;;;;7.80;6.67;;;;;;;;;;5061730;28;20407;-65
2022/03/25 00:35:31;;;;;;;7.07;6.00;;;;;;;;;;5040124;28;20279;-66
2022/03/25 00:38:01;;;;;;;7.90;6.63;;;;;;;;;;5062059;28;20189;-65
2022/03/25 00:40:35;;;;;;;7.53;6.70;;;;;;;;;;5055903;28;20209;-65
2022/03/25 00:43:03;;;;;;;7.33;6.67;;;;;;;;;;5045264;28;20202;-65
2022/03/25 00:45:35;;;;;;;7.47;6.60;;;;;;;;;;5051373;28;20640;-64
2022/03/25 00:48:04;;;;;;;7.30;5.87;;;;;;;;;;5030303;28;20547;-64
2022/03/25 00:50:35;;;;;;;6.87;6.17;;;;;;;;;;5053562;28;20236;-65
2022/03/25 00:53:11;;;;;;;6.67;5.97;;;;;;;;;;5049922;28;20198;-65
2022/03/25 00:55:44;;;;;;;7.47;6.77;;;;;;;;;;5057014;28;20257;-65
2022/03/25 00:58:18;;;;;;;6.83;6.13;;;;;;;;;;5063291;28;20236;-65
2022/03/25 01:00:48;;;;;;;7.33;6.63;;;;;;;;;;5055089;28;20196;-65
2022/03/25 01:03:21;;;;;;;7.57;6.77;;;;;;;;;;5053760;28;20288;-65
2022/03/25 01:05:54;;;;;;;6.67;6.07;;;;;;;;;;5055145;28;20213;-65
2022/03/25 01:08:24;;;;;;;7.60;6.80;;;;;;;;;;5054349;28;20273;-65
2022/03/25 01:10:54;;;;;;;7.70;7.00;;;;;;;;;;5055560;28;20198;-66
2022/03/25 01:13:22;;;;;;;7.50;6.70;;;;;;;;;;5056036;28;20228;-64
2022/03/25 01:15:49;;;;;;;7.70;6.77;;;;;;;;;;5056186;28;20197;-65
2022/03/25 01:18:17;;;;;;;7.30;6.60;;;;;;;;;;5053021;28;20209;-64
2022/03/25 01:20:45;;;;;;;6.93;6.33;;;;;;;;;;5057771;28;20193;-65
2022/03/25 01:23:12;;;;;;;8.17;7.13;;;;;;;;;;5056380;28;20190;-65
2022/03/25 01:25:39;;;;;;;7.87;7.17;;;;;;;;;;5049130;28;20202;-65
2022/03/25 01:28:07;;;;;;;7.60;6.87;;;;;;;;;;5059987;28;20197;-65
2022/03/25 01:30:35;;;;;;;7.43;6.73;;;;;;;;;;5057102;28;20209;-65
2022/03/25 01:33:03;;;;;;;8.57;7.27;;;;;;;;;;5047787;28;20202;-65
2022/03/25 01:35:30;;;;;;;8.20;7.40;;;;;;;;;;5050983;28;20214;-66
2022/03/25 01:37:57;;;;;;;7.37;6.67;;;;;;;;;;5058921;28;20237;-66
2022/03/25 01:40:24;;;;;;;9.17;7.17;;;;;;;;;;5055764;28;20198;-66
2022/03/25 01:42:52;;;;;;;8.17;7.10;;;;;;;;;;5057688;28;20210;-65
2022/03/25 01:45:36;;;;;;;7.70;6.90;;;;;;;;;;5050428;28;20217;-65
2022/03/25 01:48:07;;;;;;;8.40;7.50;;;;;;;;;;5059522;28;20193;-64
2022/03/25 01:50:34;;;;;;;7.60;6.80;;;;;;;;;;5059371;28;20225;-66
2022/03/25 01:53:03;;;;;;;8.73;7.93;;;;;;;;;;5053138;28;20218;-64
2022/03/25 01:55:38;;;;;;;9.13;7.47;;;;;;;;;;5047991;28;20264;-65
2022/03/25 01:58:06;;;;;;;8.80;7.83;;;;;;;;;;5048827;28;20202;-65
2022/03/25 02:00:35;;;;;;;7.77;7.07;;;;;;;;;;5052492;28;20210;-65
2022/03/25 02:03:06;;;;;;;8.43;7.63;;;;;;;;;;5054594;28;20206;-64
2022/03/25 02:05:35;;;;;;;7.40;6.70;;;;;;;;;;5057695;28;20190;-65
2022/03/25 02:08:08;;;;;;;7.70;7.00;;;;;;;;;;5053403;28;20700;-65
2022/03/25 02:10:48;;;;;;;8.87;7.97;;;;;;;;;;5056704;28;20283;-64
2022/03/25 02:13:17;;;;;;;9.27;8.37;;;;;;;;;;5051779;28;20193;-64
2022/03/25 02:15:49;;;;;;;8.60;7.80;;;;;;;;;;5057937;28;20732;-65
2022/03/25 02:18:23;;;;;;;8.40;7.60;;;;;;;;;;5056713;28;20263;-65
2022/03/25 02:20:55;;;;;;;8.77;7.77;;;;;;;;;;5059963;28;20206;-64
2022/03/25 02:23:25;;;;;;;8.27;7.47;;;;;;;;;;5055699;28;20247;-65
2022/03/25 02:25:53;;;;;;;8.27;7.50;;;;;;;;;;5056784;28;20197;-65
2022/03/25 02:28:20;;;;;;;9.13;8.23;;;;;;;;;;5057438;28;20611;-67
2022/03/25 02:30:48;;;;;;;8.60;7.80;;;;;;;;;;5059541;28;20221;-65
2022/03/25 02:33:15;;;;;;;9.00;8.10;;;;;;;;;;5060767;28;20221;-65
2022/03/25 02:35:43;;;;;;;8.77;7.87;;;;;;;;;;5053887;28;20644;-65
2022/03/25 02:38:15;;;;;;;8.17;7.37;;;;;;;;;;5055343;28;20784;-65
2022/03/25 02:40:42;;;;;;;8.30;7.50;;;;;;;;;;5041721;28;20217;-65
2022/03/25 02:43:11;;;;;;;8.53;7.47;;;;;;;;;;5056557;28;20828;-66
2022/03/25 02:45:38;;;;;;;8.83;7.93;;;;;;;;;;5051127;28;20203;-66
2022/03/25 02:48:06;;;;;;;8.57;7.67;;;;;;;;;;5047989;28;20730;-65
2022/03/25 02:50:34;;;;;;;9.13;8.23;;;;;;;;;;5054865;28;20227;-66
2022/03/25 02:53:02;;;;;;;8.60;7.80;;;;;;;;;;5053582;28;20283;-65
2022/03/25 02:55:29;;;;;;;9.53;8.53;;;;;;;;;;5055908;28;20255;-65
2022/03/25 02:57:56;;;;;;;8.73;7.83;;;;;;;;;;5062687;28;20212;-66
2022/03/25 03:00:26;;;;;;;9.57;8.67;;;;;;;;;;5050688;28;20198;-64
2022/03/25 03:02:54;;;;;;;9.00;8.10;;;;;;;;;;5052944;28;20627;-65
2022/03/25 03:05:22;;;;;;;8.70;7.80;;;;;;;;;;5052632;28;20218;-65
2022/03/25 03:07:50;;;;;;;9.17;7.87;;;;;;;;;;5055070;28;20190;-65
2022/03/25 03:10:18;;;;;;;9.83;7.70;;;;;;;;;;5050430;28;20259;-64
2022/03/25 03:12:45;;;;;;;9.17;8.27;;;;;;;;;;5052424;28;20205;-65
2022/03/25 03:15:13;;;;;;;8.77;7.87;;;;;;;;;;5054456;28;20206;-65
2022/03/25 03:17:40;;;;;;;9.30;8.40;;;;;;;;;;5052726;28;20205;-67
2022/03/25 03:20:08;;;;;;;8.63;7.73;;;;;;;;;;5050657;28;20196;-65
2022/03/25 03:22:35;;;;;;;9.17;8.30;;;;;;;;;;5055223;28;20187;-66
2022/03/25 03:25:03;;;;;;;8.73;7.83;;;;;;;;;;5055839;28;20307;-64
2022/03/25 03:27:30;;;;;;;9.57;8.57;;;;;;;;;;5054025;28;20206;-65
2022/03/25 03:29:58;;;;;;;10.03;9.03;;;;;;;;;;5050816;28;20296;-65
2022/03/25 03:32:26;;;;;;;9.10;8.27;;;;;;;;;;5054757;28;20550;-66
2022/03/25 03:34:54;;;;;;;9.17;8.27;;;;;;;;;;5054221;28;20242;-66
2022/03/25 03:37:21;;;;;;;8.60;7.80;;;;;;;;;;5057399;28;20201;-65
2022/03/25 03:39:49;;;;;;;9.70;8.27;;;;;;;;;;5060862;28;20206;-64
2022/03/25 03:42:16;;;;;;;9.27;8.37;;;;;;;;;;5053541;28;20225;-65
2022/03/25 03:44:43;;;;;;;8.47;7.70;;;;;;;;;;5058242;28;20191;-65
2022/03/25 03:47:14;;;;;;;9.27;8.37;;;;;;;;;;5059351;28;20544;-65
2022/03/25 03:49:41;;;;;;;9.03;8.13;;;;;;;;;;5058823;28;20263;-65
2022/03/25 03:52:08;;;;;;;9.47;8.43;;;;;;;;;;5058666;28;20226;-64
2022/03/25 03:54:37;;;;;;;10.00;8.77;;;;;;;;;;5053355;28;20229;-65
2022/03/25 03:57:07;;;;;;;8.50;7.70;;;;;;;;;;5048878;28;20182;-65
2022/03/25 03:59:34;;;;;;;8.90;8.00;;;;;;;;;;5055804;28;20256;-64
2022/03/25 04:02:03;;;;;;;8.93;8.03;;;;;;;;;;5052529;28;20189;-65
2022/03/25 04:04:30;;;;;;;11.80;8.67;;;;;;;;;;5057726;28;20260;-66
2022/03/25 04:06:58;;;;;;;9.53;8.53;;;;;;;;;;5051026;28;20221;-65
2022/03/25 04:09:25;;;;;;;8.90;8.10;;;;;;;;;;5061950;28;20189;-65
2022/03/25 04:11:53;;;;;;;8.90;7.80;;;;;;;;;;5051580;28;20203;-64
2022/03/25 04:14:20;;;;;;;9.30;8.20;;;;;;;;;;5057958;28;20190;-65
2022/03/25 04:16:48;;;;;;;9.13;8.23;;;;;;;;;;5047740;28;20298;-66
2022/03/25 04:19:15;;;;;;;9.40;8.50;;;;;;;;;;5058070;28;20202;-64
2022/03/25 04:21:42;;;;;;;9.03;8.20;;;;;;;;;;5058298;28;20187;-65
2022/03/25 04:24:09;;;;;;;9.50;8.60;;;;;;;;;;5064580;28;20202;-65
2022/03/25 04:26:36;;;;;;;9.00;8.10;;;;;;;;;;5053195;28;20693;-65
2022/03/25 04:29:03;;;;;;;8.90;8.10;;;;;;;;;;5054991;28;20656;-66
2022/03/25 04:31:31;;;;;;;8.90;8.00;;;;;;;;;;5056460;28;20626;-66
2022/03/25 04:33:58;;;;;;;9.23;8.33;;;;;;;;;;5067339;28;20198;-66
2022/03/25 04:36:25;;;;;;;9.47;8.53;;;;;;;;;;5058372;28;20210;-65
2022/03/25 04:38:52;;;;;;;9.50;8.60;;;;;;;;;;5055186;28;20193;-65
2022/03/25 04:41:20;;;;;;;9.23;8.33;;;;;;;;;;5053139;28;20272;-65
2022/03/25 04:43:47;;;;;;;9.83;8.87;;;;;;;;;;5057179;28;20187;-65
2022/03/25 04:46:14;;;;;;;10.20;9.20;;;;;;;;;;5061205;28;20252;-65
2022/03/25 04:48:42;;;;;;;9.90;8.90;;;;;;;;;;5055894;28;20669;-66
2022/03/25 04:51:09;;;;;;;9.67;8.77;;;;;;;;;;5060090;28;20238;-65
2022/03/25 04:53:37;;;;;;;9.77;8.77;;;;;;;;;;5053692;28;20218;-65
2022/03/25 04:56:05;;;;;;;10.40;9.40;;;;;;;;;;5053028;28;20209;-65
2022/03/25 04:58:32;;;;;;;9.70;8.80;;;;;;;;;;5058655;28;20259;-65
2022/03/25 05:00:59;;;;;;;9.57;8.20;;;;;;;;;;5056189;28;20202;-65
2022/03/25 05:03:26;;;;;;;9.20;8.30;;;;;;;;;;5050425;28;20265;-65
2022/03/25 05:05:53;;;;;;;9.37;8.47;;;;;;;;;;5055961;28;20241;-65
2022/03/25 05:08:21;;;;;;;9.33;8.43;;;;;;;;;;5060603;28;20583;-65
2022/03/25 05:10:48;;;;;;;9.90;8.90;;;;;;;;;;5055967;28;20260;-65
2022/03/25 05:13:27;;;;;;;10.33;9.33;;;;;;;;;;5058601;28;20615;-64
2022/03/25 05:16:11;;;;;;;10.20;9.10;;;;;;;;;;5062774;28;20190;-66
2022/03/25 05:18:42;;;;;;;9.33;8.40;;;;;;;;;;5059729;28;20198;-66
2022/03/25 05:21:15;;;;;;;9.53;8.57;;;;;;;;;;5057256;28;20705;-67
2022/03/25 05:23:46;;;;;;;9.27;8.43;;;;;;;;;;5057226;28;20186;-69
2022/03/25 05:26:16;;;;;;;9.53;8.63;;;;;;;;;;5051899;28;20203;-66
2022/03/25 05:28:49;;;;;;;9.43;8.40;;;;;;;;;;5051247;28;20205;-65
2022/03/25 05:31:22;;;;;;;9.63;8.73;;;;;;;;;;5059254;28;20199;-66
2022/03/25 05:33:51;;;;;;;9.83;8.83;;;;;;;;;;5050280;28;20205;-65
2022/03/25 05:36:20;;;;;;;10.27;9.27;;;;;;;;;;5060976;28;20217;-66
2022/03/25 05:38:51;;;;;;;11.07;9.97;;;;;;;;;;5056942;28;20209;-67
2022/03/25 05:41:21;;;;;;;9.67;8.77;;;;;;;;;;5052222;28;20218;-65
2022/03/25 05:43:53;;;;;;;10.33;9.40;;;;;;;;;;5051102;28;20187;-65
2022/03/25 05:46:32;;;;;;;10.17;9.00;;;;;;;;;;5059107;28;20204;-68
2022/03/25 05:49:02;;;;;;;10.57;9.50;;;;;;;;;;5057463;28;20698;-69
2022/03/25 05:51:30;;;;;;;10.13;9.10;;;;;;;;;;5060167;28;20233;-66
2022/03/25 05:54:01;;;;;;;9.20;8.30;;;;;;;;;;5050605;28;20313;-68
2022/03/25 05:56:32;;;;;;;10.77;9.67;;;;;;;;;;5059126;28;20213;-65
2022/03/25 05:59:02;;;;;;;10.63;9.63;;;;;;;;;;5054022;28;20340;-64
2022/03/25 06:01:34;;;;;;;9.63;8.70;;;;;;;;;;5062828;28;20205;-68
2022/03/25 06:04:05;;;;;;;9.57;8.67;;;;;;;;;;5053711;28;20197;-68
2022/03/25 06:06:37;;;;;;;10.07;9.07;;;;;;;;;;5056734;28;20205;-68
2022/03/25 06:09:07;;;;;;;10.17;9.07;;;;;;;;;;5064309;28;20577;-68
2022/03/25 06:11:38;;;;;;;10.00;9.00;;;;;;;;;;5060785;28;20186;-68
2022/03/25 06:14:07;;;;;;;10.23;9.20;;;;;;;;;;5052617;28;20522;-67
2022/03/25 06:16:39;;;;;;;11.17;10.07;;;;;;;;;;5054686;28;20209;-69
2022/03/25 06:19:08;;;;;;;11.43;10.37;;;;;;;;;;5052897;28;20178;-68
2022/03/25 06:21:42;;;;;;;10.77;9.77;;;;;;;;;;5047937;28;20793;-67
2022/03/25 06:24:11;;;;;;;10.60;9.60;;;;;;;;;;5052572;28;20198;-66
2022/03/25 06:26:38;;;;;;;12.17;10.90;;;;;;;;;;5051333;28;20210;-66
2022/03/25 06:29:08;;;;;;;13.13;11.60;;;;;;;;;;5040478;28;20850;-67
2022/03/25 06:31:41;;;;;;;11.37;10.27;;;;;;;;;;5054662;28;20197;-67
2022/03/25 06:34:20;;;;;;;13.40;11.30;;;;;;;;;;5051490;28;20221;-67
2022/03/25 06:36:48;;;;;;;13.97;12.10;;;;;;;;;;5054244;28;20233;-68
2022/03/25 06:39:15;;;;;;;12.97;11.67;;;;;;;;;;5053333;28;20206;-66
2022/03/25 06:41:43;;;;;;;12.67;11.47;;;;;;;;;;5045764;28;20225;-68
2022/03/25 06:44:10;;;;;;;13.20;11.80;;;;;;;;;;5049862;28;20198;-68
2022/03/25 06:46:37;;;;;;;12.67;11.37;;;;;;;;;;5051502;28;20190;-66
2022/03/25 06:49:05;;;;;;;13.37;12.07;;;;;;;;;;5046521;28;20206;-66
2022/03/25 06:51:32;;;;;;;13.97;12.50;;;;;;;;;;5061417;28;20225;-67
2022/03/25 06:54:00;;;;;;;14.97;13.20;;;;;;;;;;5047522;28;20263;-67
2022/03/25 06:56:27;;;;;;;15.57;13.90;;;;;;;;;;5057695;28;20231;-67
2022/03/25 06:58:55;;;;;;;14.37;12.90;;;;;;;;;;5045505;28;20190;-67
2022/03/25 07:01:24;;;;;;;16.80;14.30;;;;;;;;;;5055170;28;20222;-67
2022/03/25 07:03:51;;;;;;;15.97;14.13;;;;;;;;;;5051148;28;20198;-67
2022/03/25 07:06:22;;;;;;;15.63;13.97;;;;;;;;;;5051212;28;20199;-66
2022/03/25 07:08:53;;;;;;;16.23;13.50;;;;;;;;;;5052490;28;20205;-67
2022/03/25 07:11:21;;;;;;;18.33;14.07;;;;;;;;;;5051112;28;20202;-65
2022/03/25 07:13:48;;;;;;;15.67;13.40;;;;;;;;;;5051436;28;20210;-65
2022/03/25 07:16:16;;;;;;;15.80;14.10;;;;;;;;;;5052420;28;20888;-66
2022/03/25 07:18:43;;;;;;;15.00;13.40;;;;;;;;;;5045794;28;20206;-66
2022/03/25 07:21:11;;;;;;;15.83;13.70;;;;;;;;;;5052964;28;20194;-65
2022/03/25 07:23:38;;;;;;;14.80;13.07;;;;;;;;;;5059288;28;20218;-65
2022/03/25 07:26:07;;;;;;;15.97;14.23;;;;;;;;;;5054132;28;20647;-67
2022/03/25 07:28:34;;;;;;;15.50;13.83;;;;;;;;;;5059244;28;20193;-68
2022/03/25 07:31:02;;;;;;;17.37;14.03;;;;;;;;;;5053848;28;20489;-67
2022/03/25 07:33:29;;;;;;;16.40;14.63;;;;;;;;;;5052313;28;20202;-67
2022/03/25 07:36:00;;;;;;;16.33;14.57;;;;;;;;;;5057682;28;20217;-66
2022/03/25 07:38:32;;;;;;;15.20;13.67;;;;;;;;;;5051946;28;20565;-68
2022/03/25 07:41:03;;;;;;;16.33;14.63;;;;;;;;;;5049974;28;20200;-67
2022/03/25 07:43:32;;;;;;;18.80;14.13;;;;;;;;;;5056984;28;20193;-67
2022/03/25 07:46:04;;;;;;;15.30;13.70;;;;;;;;;;5054984;28;20726;-66
2022/03/25 07:48:38;;;;;;;16.70;14.90;;;;;;;;;;5055171;28;20209;-66
2022/03/25 07:51:08;;;;;;;15.83;14.13;;;;;;;;;;5060412;28;20253;-66
2022/03/25 07:53:37;;;;;;;16.50;14.70;;;;;;;;;;5057433;28;20209;-66
2022/03/25 07:56:08;;;;;;;17.43;15.53;;;;;;;;;;5053905;28;20222;-65
2022/03/25 07:58:37;;;;;;;16.23;14.53;;;;;;;;;;5059185;28;20190;-64
2022/03/25 08:01:08;;;;;;;16.93;15.17;;;;;;;;;;5057176;28;20194;-66
2022/03/25 08:03:41;;;;;;;17.10;15.30;;;;;;;;;;5050918;28;20194;-66
2022/03/25 08:06:14;;;;;;;17.07;15.37;;;;;;;;;;5050706;28;20237;-66
2022/03/25 08:08:48;;;;;;;16.97;15.20;;;;;;;;;;5056177;28;20308;-65
2022/03/25 08:11:20;;;;;;;17.87;15.87;;;;;;;;;;5059899;28;20667;-68
2022/03/25 08:13:52;;;;;;;17.43;15.63;;;;;;;;;;5059407;28;20212;-68
2022/03/25 08:16:24;;;;;;;17.77;15.97;;;;;;;;;;5057995;28;20207;-68
2022/03/25 08:18:54;;;;;;;18.87;16.87;;;;;;;;;;5052809;28;20283;-68
2022/03/25 08:21:21;;;;;;;19.00;17.00;;;;;;;;;;5063896;28;20272;-65
2022/03/25 08:29:27;;;;;;;18.40;16.50;;;;;;;;;;5052732;28;20198;-67
2022/03/25 08:32:06;;;;;;;480.00;108.90;;;;;;;;;;5050066;28;20190;-67
2022/03/25 08:34:35;;;;;;;688.67;169.53;;;;;;;;;;5057337;28;20207;-66
2022/03/25 08:37:02;;;;;;;537.37;127.17;;;;;;;;;;5057816;28;20205;-68
2022/03/25 08:39:30;;;;;;;471.13;111.97;;;;;;;;;;5055576;28;20256;-66
2022/03/25 08:41:57;;;;;;;385.27;99.10;;;;;;;;;;5056979;28;20307;-69
2022/03/25 08:44:24;;;;;;;319.40;84.33;;;;;;;;;;5056285;28;20217;-68
2022/03/25 08:46:51;;;;;;;270.30;76.83;;;;;;;;;;5056388;28;20781;-65
2022/03/25 08:49:18;;;;;;;224.73;67.60;;;;;;;;;;5057051;28;20206;-66
2022/03/25 08:51:47;;;;;;;208.87;62.93;;;;;;;;;;5058092;28;20226;-68
2022/03/25 08:54:18;;;;;;;159.67;55.87;;;;;;;;;;5055772;28;20666;-68
2022/03/25 08:56:49;;;;;;;133.37;51.17;;;;;;;;;;5054400;28;20213;-68
2022/03/25 08:59:23;;;;;;;130.63;48.63;;;;;;;;;;5053608;28;20702;-67
2022/03/25 09:01:50;;;;;;;121.10;46.67;;;;;;;;;;5054997;28;20682;-68
2022/03/25 09:04:18;;;;;;;111.40;44.30;;;;;;;;;;5048915;28;20194;-68
2022/03/25 09:06:45;;;;;;;95.63;41.73;;;;;;;;;;5045606;28;20210;-68
2022/03/25 09:09:13;;;;;;;91.43;39.13;;;;;;;;;;5058495;28;20178;-68
2022/03/25 09:11:40;;;;;;;76.67;37.80;;;;;;;;;;5055984;28;20607;-65
2022/03/25 09:14:08;;;;;;;73.17;36.10;;;;;;;;;;5053465;28;20626;-65
2022/03/25 09:16:36;;;;;;;66.37;34.57;;;;;;;;;;5057020;28;20307;-65
2022/03/25 09:19:03;;;;;;;62.97;35.13;;;;;;;;;;5057134;28;21115;-67
2022/03/25 09:21:30;;;;;;;61.33;33.93;;;;;;;;;;5051280;28;20260;-69
2022/03/25 09:23:57;;;;;;;53.33;31.30;;;;;;;;;;5053623;28;20194;-68
2022/03/25 09:26:25;;;;;;;53.43;31.07;;;;;;;;;;5049372;28;20197;-67
2022/03/25 09:28:52;;;;;;;52.93;31.10;;;;;;;;;;5046317;28;20202;-66
2022/03/25 09:31:19;;;;;;;55.20;32.30;;;;;;;;;;5057441;28;20193;-68
2022/03/25 09:36:53;;;;;;;47.20;28.90;;;;;;;;;;5054297;28;20212;-68
2022/03/25 09:39:21;;;;;;;39.60;26.33;;;;;;;;;;5056132;28;20202;-69
2022/03/25 09:41:48;;;;;;;41.70;26.87;;;;;;;;;;5055458;28;20227;-65
2022/03/25 09:44:16;;;;;;;40.90;26.97;;;;;;;;;;5056117;28;20191;-67
2022/03/25 09:46:44;;;;;;;35.07;24.30;;;;;;;;;;5054069;28;20194;-68
2022/03/25 09:49:13;;;;;;;36.27;23.87;;;;;;;;;;5053875;28;20220;-68
2022/03/25 09:51:41;;;;;;;34.30;23.73;;;;;;;;;;5045872;28;20239;-69
2022/03/25 09:54:09;;;;;;;31.80;24.73;;;;;;;;;;5056878;28;20216;-69
2022/03/25 09:56:36;;;;;;;29.53;23.10;;;;;;;;;;5059299;28;20222;-65
2022/03/25 09:59:09;;;;;;;32.10;24.13;;;;;;;;;;5053961;28;20186;-66
2022/03/25 10:01:41;;;;;;;28.03;22.70;;;;;;;;;;5048859;28;20532;-67
2022/03/25 10:04:30;;;;;;;26.90;22.23;;;;;;;;;;5049909;28;20192;-66
2022/03/25 10:06:58;;;;;;;29.90;23.50;;;;;;;;;;5046781;28;20210;-68
2022/03/25 10:09:28;;;;;;;26.13;21.30;;;;;;;;;;5059801;28;20631;-68
2022/03/25 10:12:00;;;;;;;31.33;22.37;;;;;;;;;;5058770;28;20194;-68
2022/03/25 10:14:29;;;;;;;28.30;23.53;;;;;;;;;;5059448;28;20198;-67
2022/03/25 10:16:59;;;;;;;24.97;20.70;;;;;;;;;;5051672;28;20537;-67
2022/03/25 10:19:29;;;;;;;24.43;20.67;;;;;;;;;;5055867;28;20195;-67
2022/03/25 10:21:57;;;;;;;28.10;22.40;;;;;;;;;;5050803;28;20722;-65
2022/03/25 10:24:48;;;;;;;24.73;21.37;;;;;;;;;;5056338;28;20194;-65
2022/03/25 10:27:22;;;;;;;26.30;22.23;;;;;;;;;;5051444;28;20201;-65
2022/03/25 10:29:50;;;;;;;24.77;21.33;;;;;;;;;;5053144;28;20607;-65
2022/03/25 10:32:20;;;;;;;22.77;19.60;;;;;;;;;;5055244;28;20777;-68
2022/03/25 10:35:00;;;;;;;24.70;21.13;;;;;;;;;;5050180;28;20663;-69
2022/03/25 10:37:28;;;;;;;23.60;21.07;;;;;;;;;;5055654;28;20737;-68
2022/03/25 10:39:55;;;;;;;24.10;19.70;;;;;;;;;;5058514;28;20205;-68
2022/03/25 10:42:23;;;;;;;23.57;19.60;;;;;;;;;;5054012;28;20253;-68
2022/03/25 10:44:50;;;;;;;21.93;18.47;;;;;;;;;;5044580;28;20195;-69
2022/03/25 10:47:24;;;;;;;20.87;17.97;;;;;;;;;;5046367;28;20195;-64
2022/03/25 10:49:52;;;;;;;20.07;17.63;;;;;;;;;;5047053;28;20205;-64
2022/03/25 10:52:21;;;;;;;19.73;17.63;;;;;;;;;;5047296;28;20550;-66
2022/03/25 10:55:17;;;;;;;21.13;18.43;;;;;;;;;;5041962;28;20632;-65
2022/03/25 10:57:51;;;;;;;20.60;17.80;;;;;;;;;;5046499;28;20730;-65
2022/03/25 11:00:19;;;;;;;21.20;18.93;;;;;;;;;;5047136;28;20194;-68
2022/03/25 11:02:46;;;;;;;20.73;17.00;;;;;;;;;;5045681;28;20190;-70
2022/03/25 11:05:14;;;;;;;19.10;16.83;;;;;;;;;;5043946;28;20213;-68
2022/03/25 11:07:43;;;;;;;18.57;16.53;;;;;;;;;;5046384;28;20198;-67
2022/03/25 11:10:14;;;;;;;17.87;16.00;;;;;;;;;;5047396;28;20229;-67
2022/03/25 11:12:43;;;;;;;18.93;16.93;;;;;;;;;;5045750;28;20640;-67
2022/03/25 11:15:14;;;;;;;19.47;17.47;;;;;;;;;;5047147;28;20206;-65
2022/03/25 11:17:41;;;;;;;19.43;15.93;;;;;;;;;;5043633;28;20634;-66
2022/03/25 11:20:10;;;;;;;19.40;16.20;;;;;;;;;;5046706;28;20199;-65
2022/03/25 11:22:50;;;;;;;17.50;14.73;;;;;;;;;;5046373;28;20210;-65
2022/03/25 11:25:21;;;;;;;16.80;15.00;;;;;;;;;;5043789;28;20777;-67
2022/03/25 11:27:53;;;;;;;17.53;15.63;;;;;;;;;;5046732;28;20190;-67
2022/03/25 11:30:21;;;;;;;16.97;14.60;;;;;;;;;;5038234;28;20206;-68
2022/03/25 11:32:49;;;;;;;15.57;13.93;;;;;;;;;;5045158;28;20190;-68
2022/03/25 11:35:17;;;;;;;17.83;14.27;;;;;;;;;;5047478;28;20195;-67
2022/03/25 11:37:44;;;;;;;16.50;14.43;;;;;;;;;;5030315;28;20289;-68
2022/03/25 11:40:14;;;;;;;16.93;15.13;;;;;;;;;;5046838;28;20236;-67
2022/03/25 11:42:43;;;;;;;17.67;15.17;;;;;;;;;;5042352;28;20202;-68
2022/03/25 11:45:42;;;;;;;16.13;14.43;;;;;;;;;;5045335;28;20600;-66
2022/03/25 11:48:15;;;;;;;18.63;14.30;;;;;;;;;;5044587;28;20206;-65
2022/03/25 11:50:47;;;;;;;16.53;14.23;;;;;;;;;;5045329;28;20580;-66
2022/03/25 11:53:22;;;;;;;15.07;13.47;;;;;;;;;;5044012;28;20215;-65
2022/03/25 11:56:00;;;;;;;13.80;12.37;;;;;;;;;;5050676;28;20190;-69
2022/03/25 11:58:37;;;;;;;16.60;13.30;;;;;;;;;;5048936;28;20222;-69
2022/03/25 12:01:19;;;;;;;14.33;12.63;;;;;;;;;;5048134;28;20561;-65
2022/03/25 12:03:57;;;;;;;15.23;12.67;;;;;;;;;;5050382;28;20224;-66
2022/03/25 12:06:32;;;;;;;16.20;13.30;;;;;;;;;;5047559;28;20208;-69
2022/03/25 12:09:11;;;;;;;15.03;12.47;;;;;;;;;;5047085;28;20254;-68
2022/03/25 12:11:50;;;;;;;12.67;10.80;;;;;;;;;;5050164;28;20198;-65
2022/03/25 12:14:20;;;;;;;13.70;12.13;;;;;;;;;;5049941;28;20186;-65
2022/03/25 12:16:48;;;;;;;14.27;12.17;;;;;;;;;;5044494;28;20230;-69
2022/03/25 12:19:28;;;;;;;12.40;11.10;;;;;;;;;;5050571;28;20619;-68
2022/03/25 12:21:56;;;;;;;13.37;11.47;;;;;;;;;;5049235;28;20226;-68
2022/03/25 12:24:24;;;;;;;14.77;13.20;;;;;;;;;;5049657;28;20202;-68
2022/03/25 12:27:02;;;;;;;13.77;11.50;;;;;;;;;;5046902;28;20203;-68
2022/03/25 12:29:37;;;;;;;14.13;12.63;;;;;;;;;;5046953;28;20213;-68
2022/03/25 12:32:15;;;;;;;14.57;12.63;;;;;;;;;;5042125;28;20198;-66
2022/03/25 12:35:01;;;;;;;15.00;11.50;;;;;;;;;;5047415;28;20183;-64
2022/03/25 12:37:29;;;;;;;13.50;12.17;;;;;;;;;;5049530;28;20229;-66
2022/03/25 12:39:56;;;;;;;11.73;10.50;;;;;;;;;;5050084;28;20194;-67
2022/03/25 12:42:27;;;;;;;13.60;10.50;;;;;;;;;;5046712;28;20884;-68
2022/03/25 12:44:55;;;;;;;12.00;10.63;;;;;;;;;;5046678;28;20183;-68
2022/03/25 12:47:33;;;;;;;13.13;10.50;;;;;;;;;;5050211;28;20211;-69
2022/03/25 12:50:09;;;;;;;12.53;9.70;;;;;;;;;;5048294;28;20212;-68
2022/03/25 12:52:39;;;;;;;13.23;9.80;;;;;;;;;;5051128;28;20240;-68
2022/03/25 12:55:17;;;;;;;11.07;9.90;;;;;;;;;;5047318;28;20207;-68
2022/03/25 12:57:49;;;;;;;11.70;9.63;;;;;;;;;;5051884;28;20208;-68
2022/03/25 13:00:19;;;;;;;11.27;9.80;;;;;;;;;;5051657;28;20244;-67
2022/03/25 13:02:48;;;;;;;11.97;10.73;;;;;;;;;;5048688;28;20245;-66
2022/03/25 13:05:19;;;;;;;14.07;10.57;;;;;;;;;;5049251;28;20226;-67
2022/03/25 13:07:52;;;;;;;11.80;10.23;;;;;;;;;;5048165;28;20186;-67
2022/03/25 13:10:33;;;;;;;10.90;9.17;;;;;;;;;;5047862;28;20292;-64
2022/03/25 13:13:05;;;;;;;11.67;9.93;;;;;;;;;;5046707;28;20202;-65
2022/03/25 13:15:42;;;;;;;11.60;9.30;;;;;;;;;;5050374;28;20556;-67
2022/03/25 13:18:16;;;;;;;12.17;10.83;;;;;;;;;;5040778;28;20225;-68
2022/03/25 13:20:58;;;;;;;11.20;10.00;;;;;;;;;;5030908;28;20852;-67
2022/03/25 13:23:30;;;;;;;10.23;9.00;;;;;;;;;;5048310;28;20207;-67
2022/03/25 13:26:09;;;;;;;9.30;8.37;;;;;;;;;;5047776;28;20193;-68
2022/03/25 13:28:54;;;;;;;12.53;10.60;;;;;;;;;;5046215;28;20370;-68
2022/03/25 13:31:30;;;;;;;10.33;9.17;;;;;;;;;;5048599;28;20179;-65
2022/03/25 13:34:04;;;;;;;10.23;8.83;;;;;;;;;;5046847;28;20201;-65
2022/03/25 13:36:35;;;;;;;9.20;7.70;;;;;;;;;;5048354;28;20666;-65
2022/03/25 13:39:16;;;;;;;10.20;9.20;;;;;;;;;;5039851;28;20311;-65
2022/03/25 13:41:51;;;;;;;10.50;9.40;;;;;;;;;;5045061;28;20269;-65
2022/03/25 13:44:25;;;;;;;10.83;8.80;;;;;;;;;;5047748;28;20190;-65
2022/03/25 13:46:58;;;;;;;10.17;8.87;;;;;;;;;;5037942;28;20221;-69
2022/03/25 13:49:26;;;;;;;10.23;8.13;;;;;;;;;;5046673;28;20267;-69
2022/03/25 13:52:07;;;;;;;12.63;8.17;;;;;;;;;;5047543;28;20230;-69
2022/03/25 13:54:39;;;;;;;9.97;8.17;;;;;;;;;;5045318;28;20248;-69
2022/03/25 13:57:19;;;;;;;9.67;8.30;;;;;;;;;;5059096;28;20218;-66
2022/03/25 13:59:50;;;;;;;9.03;7.53;;;;;;;;;;5067384;28;20569;-65
2022/03/25 14:02:28;;;;;;;9.63;8.40;;;;;;;;;;5067832;28;20198;-65
2022/03/25 14:04:59;;;;;;;8.20;6.93;;;;;;;;;;5062926;28;20190;-66
2022/03/25 14:07:42;;;;;;;9.13;7.70;;;;;;;;;;5051752;28;20204;-68
2022/03/25 14:10:13;;;;;;;9.17;7.50;;;;;;;;;;5060687;28;20514;-69
2022/03/25 14:12:42;;;;;;;10.17;7.33;;;;;;;;;;5066065;28;20212;-69
2022/03/25 14:15:18;;;;;;;9.13;8.10;;;;;;;;;;5061218;28;20208;-69
2022/03/25 14:17:51;;;;;;;9.20;7.93;;;;;;;;;;5063637;28;20240;-69
2022/03/25 14:20:21;;;;;;;10.17;7.23;;;;;;;;;;5067808;28;20190;-65
2022/03/25 14:22:53;;;;;;;10.07;7.57;;;;;;;;;;5065059;28;20202;-65
2022/03/25 14:25:30;;;;;;;8.57;7.50;;;;;;;;;;5055610;28;20190;-66
2022/03/25 14:28:10;;;;;;;10.63;9.10;;;;;;;;;;5050498;28;20266;-64
2022/03/25 14:30:39;;;;;;;9.23;7.00;;;;;;;;;;5064064;28;20201;-68
2022/03/25 14:33:06;;;;;;;7.87;6.40;;;;;;;;;;5065212;28;20195;-69
2022/03/25 14:35:34;;;;;;;8.23;7.43;;;;;;;;;;5067146;28;20194;-66
2022/03/25 14:38:01;;;;;;;10.87;8.60;;;;;;;;;;5049281;28;20210;-65
2022/03/25 14:40:31;;;;;;;8.87;7.60;;;;;;;;;;5062662;28;20185;-65
2022/03/25 14:43:00;;;;;;;8.03;7.07;;;;;;;;;;5043620;28;20612;-65
2022/03/25 14:45:36;;;;;;;7.77;6.73;;;;;;;;;;5063237;28;20177;-65
2022/03/25 14:48:07;;;;;;;7.30;6.60;;;;;;;;;;5059822;28;20213;-66
2022/03/25 14:50:36;;;;;;;8.10;7.03;;;;;;;;;;5049158;28;20233;-65
2022/03/25 14:53:06;;;;;;;8.83;7.30;;;;;;;;;;5054460;28;20244;-65
2022/03/25 14:55:35;;;;;;;8.47;7.60;;;;;;;;;;5067209;28;20577;-65